GTI1825 KCVG-KJFK
Flight info
| Callsign | GTI1825 |
|---|---|
| Flight time | N/A |
| Altitude | 41000 |
| Route | BARMY5 TYI Q64 SAWED Q108 SIE CAMRN5 |
| Aircraft | A333/H-SDE1E2E3FGHIJ2J3J4J5M1RWXYZ/LB2D1 |
Departure
| Time | N/A |
|---|---|
| Airport | Cincinnati Northern Kentucky International Airport (KCVG) |
Arrival
| Time | 2026-05-06 07:29 |
|---|---|
| Airport | John F. Kennedy International Airport (KJFK) |
| Time | Latitude | Longitude | Altitude | Speed | Heading |
|---|---|---|---|---|---|
| 2026-05-06 07:03 | 41.40835 | -76.12467 | 39291 ft | 541 kts | 108° |
| 2026-05-06 07:03 | 41.39301 | -76.07923 | 38935 ft | 533 kts | 115° |
| 2026-05-06 07:04 | 41.37681 | -76.03545 | 38833 ft | 525 kts | 113° |
| 2026-05-06 07:04 | 41.34760 | -75.94511 | 38815 ft | 535 kts | 109° |
| 2026-05-06 07:05 | 41.32102 | -75.85207 | 38836 ft | 542 kts | 107° |
| 2026-05-06 07:05 | 41.29512 | -75.75777 | 38841 ft | 549 kts | 106° |
| 2026-05-06 07:06 | 41.26814 | -75.66288 | 38840 ft | 548 kts | 110° |
| 2026-05-06 07:06 | 41.23708 | -75.57014 | 38841 ft | 546 kts | 111° |
| 2026-05-06 07:07 | 41.20612 | -75.47848 | 38886 ft | 545 kts | 111° |
| 2026-05-06 07:07 | 41.17508 | -75.38638 | 38889 ft | 545 kts | 111° |
| 2026-05-06 07:08 | 41.14423 | -75.29494 | 38890 ft | 543 kts | 111° |
| 2026-05-06 07:08 | 41.11327 | -75.20339 | 38883 ft | 542 kts | 111° |
| 2026-05-06 07:09 | 41.08236 | -75.11223 | 38876 ft | 542 kts | 111° |
| 2026-05-06 07:09 | 41.05140 | -75.02120 | 38869 ft | 541 kts | 111° |
| 2026-05-06 07:10 | 41.02066 | -74.93111 | 38863 ft | 539 kts | 111° |
| 2026-05-06 07:10 | 40.99572 | -74.83799 | 38869 ft | 532 kts | 96° |
| 2026-05-06 07:11 | 40.98392 | -74.74165 | 38873 ft | 536 kts | 92° |
| 2026-05-06 07:11 | 40.95362 | -73.94274 | 39063 ft | 529 kts | 90° |
| 2026-05-06 07:11 | 40.94701 | -73.89461 | 39086 ft | 534 kts | 101° |
| 2026-05-06 07:11 | 40.93400 | -73.84868 | 38927 ft | 536 kts | 114° |
| 2026-05-06 07:12 | 40.91480 | -73.80677 | 38906 ft | 532 kts | 126° |
| 2026-05-06 07:12 | 40.89048 | -73.77026 | 38708 ft | 521 kts | 137° |
| 2026-05-06 07:12 | 40.86308 | -73.73967 | 38519 ft | 509 kts | 139° |
| 2026-05-06 07:12 | 40.83718 | -73.70793 | 38022 ft | 507 kts | 135° |
| 2026-05-06 07:13 | 40.81187 | -73.67504 | 37217 ft | 512 kts | 134° |
| 2026-05-06 07:13 | 40.78663 | -73.64159 | 36439 ft | 524 kts | 133° |
| 2026-05-06 07:13 | 40.76132 | -73.60657 | 35743 ft | 532 kts | 128° |
| 2026-05-06 07:13 | 40.74054 | -73.56587 | 35053 ft | 533 kts | 114° |
| 2026-05-06 07:14 | 40.72489 | -73.52232 | 34196 ft | 519 kts | 110° |
| 2026-05-06 07:14 | 40.71195 | -73.47877 | 33198 ft | 508 kts | 104° |
| 2026-05-06 07:14 | 40.70192 | -73.43459 | 32158 ft | 497 kts | 102° |
| 2026-05-06 07:14 | 40.69291 | -73.39095 | 31170 ft | 486 kts | 101° |
| 2026-05-06 07:15 | 40.68469 | -73.34823 | 30215 ft | 476 kts | 101° |
| 2026-05-06 07:15 | 40.67716 | -73.30603 | 29160 ft | 469 kts | 100° |
| 2026-05-06 07:15 | 40.67036 | -73.26451 | 28119 ft | 465 kts | 98° |
| 2026-05-06 07:15 | 40.66419 | -73.22278 | 27104 ft | 460 kts | 97° |
| 2026-05-06 07:16 | 40.65860 | -73.18158 | 26128 ft | 454 kts | 97° |
| 2026-05-06 07:16 | 40.65338 | -73.14078 | 25182 ft | 447 kts | 97° |
| 2026-05-06 07:16 | 40.64579 | -73.10154 | 24244 ft | 440 kts | 109° |
| 2026-05-06 07:16 | 40.63253 | -73.06575 | 23306 ft | 431 kts | 122° |
| 2026-05-06 07:17 | 40.61438 | -73.03495 | 22130 ft | 419 kts | 135° |
| 2026-05-06 07:17 | 40.59283 | -73.01108 | 21023 ft | 403 kts | 148° |
| 2026-05-06 07:17 | 40.56854 | -72.99441 | 19934 ft | 385 kts | 161° |
| 2026-05-06 07:17 | 40.54342 | -72.98587 | 18905 ft | 367 kts | 174° |
| 2026-05-06 07:18 | 40.51841 | -72.98543 | 17829 ft | 350 kts | 188° |
| 2026-05-06 07:18 | 40.49524 | -72.99290 | 16671 ft | 335 kts | 201° |
| 2026-05-06 07:18 | 40.47531 | -73.00744 | 15572 ft | 323 kts | 215° |
| 2026-05-06 07:18 | 40.45969 | -73.02809 | 14576 ft | 314 kts | 230° |
| 2026-05-06 07:19 | 40.45009 | -73.05269 | 13968 ft | 299 kts | 246° |
| 2026-05-06 07:19 | 40.44704 | -73.07882 | 13639 ft | 281 kts | 263° |
| 2026-05-06 07:19 | 40.44958 | -73.10350 | 13311 ft | 267 kts | 274° |
| 2026-05-06 07:19 | 40.45552 | -73.12656 | 12791 ft | 270 kts | 281° |
| 2026-05-06 07:20 | 40.46307 | -73.14955 | 12254 ft | 276 kts | 283° |
| 2026-05-06 07:20 | 40.47111 | -73.17220 | 11745 ft | 277 kts | 284° |
| 2026-05-06 07:20 | 40.47944 | -73.19495 | 11458 ft | 273 kts | 284° |
| 2026-05-06 07:20 | 40.48779 | -73.21733 | 11328 ft | 272 kts | 284° |
| 2026-05-06 07:21 | 40.49616 | -73.23967 | 11134 ft | 272 kts | 284° |
| 2026-05-06 07:21 | 40.50453 | -73.26200 | 10864 ft | 271 kts | 284° |
| 2026-05-06 07:21 | 40.51287 | -73.28414 | 10549 ft | 270 kts | 284° |
| 2026-05-06 07:21 | 40.52122 | -73.30620 | 10260 ft | 269 kts | 284° |
| 2026-05-06 07:22 | 40.52960 | -73.32814 | 9953 ft | 267 kts | 284° |
| 2026-05-06 07:22 | 40.53786 | -73.34959 | 9631 ft | 266 kts | 284° |
| 2026-05-06 07:22 | 40.54625 | -73.37134 | 9285 ft | 265 kts | 284° |
| 2026-05-06 07:22 | 40.55456 | -73.39298 | 8961 ft | 264 kts | 284° |
| 2026-05-06 07:23 | 40.56276 | -73.41455 | 8622 ft | 263 kts | 285° |
| 2026-05-06 07:23 | 40.57087 | -73.43607 | 8288 ft | 262 kts | 285° |
| 2026-05-06 07:23 | 40.57980 | -73.45709 | 7983 ft | 265 kts | 289° |
| 2026-05-06 07:23 | 40.58948 | -73.47791 | 7417 ft | 269 kts | 291° |
| 2026-05-06 07:24 | 40.59938 | -73.49920 | 6581 ft | 283 kts | 291° |
| 2026-05-06 07:24 | 40.60966 | -73.52245 | 5472 ft | 301 kts | 289° |
| 2026-05-06 07:24 | 40.61554 | -73.54843 | 4690 ft | 293 kts | 263° |
| 2026-05-06 07:24 | 40.61100 | -73.57307 | 4199 ft | 262 kts | 240° |
| 2026-05-06 07:25 | 40.60358 | -73.59346 | 3852 ft | 238 kts | 238° |
| 2026-05-06 07:25 | 40.59644 | -73.61210 | 3516 ft | 218 kts | 237° |
| 2026-05-06 07:25 | 40.58998 | -73.62905 | 3229 ft | 196 kts | 237° |
| 2026-05-06 07:25 | 40.58433 | -73.64446 | 3016 ft | 177 kts | 238° |
| 2026-05-06 07:26 | 40.58149 | -73.65957 | 2891 ft | 167 kts | 259° |
| 2026-05-06 07:26 | 40.58472 | -73.67416 | 2697 ft | 172 kts | 281° |
| 2026-05-06 07:26 | 40.59159 | -73.68762 | 2309 ft | 179 kts | 289° |
| 2026-05-06 07:26 | 40.59860 | -73.70052 | 2002 ft | 169 kts | 285° |
| 2026-05-06 07:27 | 40.60381 | -73.71353 | 1652 ft | 152 kts | 274° |
| 2026-05-06 07:27 | 40.60758 | -73.72556 | 1432 ft | 136 kts | 272° |
| 2026-05-06 07:27 | 40.61206 | -73.73683 | 1024 ft | 143 kts | 282° |
| 2026-05-06 07:27 | 40.61724 | -73.74811 | 635 ft | 146 kts | 288° |
| 2026-05-06 07:28 | 40.62252 | -73.75949 | 364 ft | 143 kts | 295° |
| 2026-05-06 07:28 | 40.62743 | -73.77043 | 155 ft | 138 kts | 292° |
| 2026-05-06 07:28 | 40.63676 | -73.79107 | 30 ft | 96 kts | 300° |
| 2026-05-06 07:29 | 40.63863 | -73.79499 | 26 ft | 6 kts | 311° |
| 2026-05-06 07:29 | 40.63911 | -73.79522 | 28 ft | 10 kts | 355° |
| 2026-05-06 07:29 | 40.63996 | -73.79512 | 28 ft | 17 kts | 5° |
| 2026-05-06 07:29 | 40.64090 | -73.79544 | 30 ft | 17 kts | 319° |
| 2026-05-06 07:30 | 40.64162 | -73.79686 | 29 ft | 21 kts | 300° |
| 2026-05-06 07:30 | 40.64263 | -73.79854 | 28 ft | 26 kts | 314° |
| 2026-05-06 07:30 | 40.64382 | -73.80069 | 30 ft | 33 kts | 301° |
| 2026-05-06 07:30 | 40.64501 | -73.80333 | 27 ft | 29 kts | 300° |
| 2026-05-06 07:31 | 40.64567 | -73.80478 | 28 ft | 0 kts | 303° |
| 2026-05-06 07:31 | 40.64617 | -73.80498 | 28 ft | 11 kts | 14° |
| 2026-05-06 07:31 | 40.64678 | -73.80450 | 29 ft | 9 kts | 15° |
| 2026-05-06 07:31 | 40.64739 | -73.80480 | 27 ft | 10 kts | 332° |
| 2026-05-06 07:32 | 40.64802 | -73.80534 | 28 ft | 12 kts | 329° |
| 2026-05-06 07:32 | 40.64818 | -73.80547 | 27 ft | 0 kts | 327° |
| 2026-05-06 07:32 | 40.64820 | -73.80549 | 26 ft | 2 kts | 327° |
| 2026-05-06 07:32 | 40.62661 | -73.76860 | 180 ft | 139 kts | 294° |
| 2026-05-06 07:33 | 40.63154 | -73.77954 | 48 ft | 139 kts | 295° |
| 2026-05-06 07:33 | 40.63333 | -73.78340 | 32 ft | 129 kts | 298° |
| 2026-05-06 07:33 | 40.62821 | -73.77218 | 133 ft | 139 kts | 292° |
| 2026-05-06 07:34 | 40.63311 | -73.78293 | 33 ft | 135 kts | 298° |
| 2026-05-06 07:34 | 40.63721 | -73.79206 | 29 ft | 78 kts | 301° |
| 2026-05-06 07:34 | 40.63868 | -73.79504 | 27 ft | 6 kts | 317° |
| 2026-05-06 07:34 | 40.63921 | -73.79521 | 27 ft | 10 kts | 1° |
| 2026-05-06 07:35 | 40.64013 | -73.79510 | 27 ft | 17 kts | 5° |
| 2026-05-06 07:35 | 40.64102 | -73.79561 | 26 ft | 18 kts | 313° |
| 2026-05-06 07:35 | 40.64173 | -73.79711 | 29 ft | 22 kts | 300° |
| 2026-05-06 07:35 | 40.64282 | -73.79880 | 30 ft | 27 kts | 313° |
| 2026-05-06 07:36 | 40.64399 | -73.80107 | 28 ft | 34 kts | 301° |
| 2026-05-06 07:36 | 40.64517 | -73.80368 | 29 ft | 28 kts | 300° |
| 2026-05-06 07:36 | 40.64568 | -73.80479 | 28 ft | 2 kts | 303° |
| 2026-05-06 07:36 | 40.64628 | -73.80491 | 27 ft | 12 kts | 27° |
| 2026-05-06 07:37 | 40.64688 | -73.80449 | 27 ft | 9 kts | 2° |
| 2026-05-06 07:37 | 40.64747 | -73.80486 | 26 ft | 10 kts | 330° |
| 2026-05-06 07:37 | 40.64809 | -73.80540 | 28 ft | 0 kts | 328° |
| 2026-05-06 07:37 | 40.64818 | -73.80547 | 27 ft | 0 kts | 327° |